sensor_id;sensor_type;location;lat;lon;timestamp;P1;durP1;ratioP1;P2;durP2;ratioP2
39524;SDS011;25203;50.754;6.978;2023-03-13T00:00:16;24.15;;;4.88;;
39524;SDS011;25203;50.754;6.978;2023-03-13T00:02:17;26.70;;;4.90;;
39524;SDS011;25203;50.754;6.978;2023-03-13T00:04:18;18.33;;;4.05;;
39524;SDS011;25203;50.754;6.978;2023-03-13T00:06:18;17.80;;;4.18;;
39524;SDS011;25203;50.754;6.978;2023-03-13T00:08:19;22.52;;;5.20;;
39524;SDS011;25203;50.754;6.978;2023-03-13T00:10:19;20.48;;;4.32;;
39524;SDS011;25203;50.754;6.978;2023-03-13T00:12:20;18.02;;;3.58;;
39524;SDS011;25203;50.754;6.978;2023-03-13T00:14:21;20.13;;;4.68;;
39524;SDS011;25203;50.754;6.978;2023-03-13T00:16:21;23.27;;;5.55;;
39524;SDS011;25203;50.754;6.978;2023-03-13T00:18:22;17.17;;;4.45;;
39524;SDS011;25203;50.754;6.978;2023-03-13T00:20:23;21.65;;;4.93;;
39524;SDS011;25203;50.754;6.978;2023-03-13T00:22:23;24.17;;;4.88;;
39524;SDS011;25203;50.754;6.978;2023-03-13T00:24:24;20.58;;;3.97;;
39524;SDS011;25203;50.754;6.978;2023-03-13T00:26:25;18.70;;;4.95;;
39524;SDS011;25203;50.754;6.978;2023-03-13T00:28:27;22.08;;;5.18;;
39524;SDS011;25203;50.754;6.978;2023-03-13T00:30:29;20.08;;;4.60;;
39524;SDS011;25203;50.754;6.978;2023-03-13T00:32:30;24.25;;;5.28;;
39524;SDS011;25203;50.754;6.978;2023-03-13T00:34:31;21.98;;;4.57;;
39524;SDS011;25203;50.754;6.978;2023-03-13T00:36:32;20.65;;;4.60;;
39524;SDS011;25203;50.754;6.978;2023-03-13T00:38:34;22.15;;;4.72;;
39524;SDS011;25203;50.754;6.978;2023-03-13T00:40:35;21.20;;;5.15;;
39524;SDS011;25203;50.754;6.978;2023-03-13T00:42:37;21.33;;;4.53;;
39524;SDS011;25203;50.754;6.978;2023-03-13T00:44:37;17.58;;;5.03;;
39524;SDS011;25203;50.754;6.978;2023-03-13T00:46:38;21.45;;;4.45;;
39524;SDS011;25203;50.754;6.978;2023-03-13T00:48:39;19.60;;;5.55;;
39524;SDS011;25203;50.754;6.978;2023-03-13T00:50:39;24.80;;;4.45;;
39524;SDS011;25203;50.754;6.978;2023-03-13T00:52:40;21.00;;;4.70;;
39524;SDS011;25203;50.754;6.978;2023-03-13T00:54:40;19.35;;;4.78;;
39524;SDS011;25203;50.754;6.978;2023-03-13T00:56:42;20.10;;;4.45;;
39524;SDS011;25203;50.754;6.978;2023-03-13T00:58:43;23.60;;;4.78;;
39524;SDS011;25203;50.754;6.978;2023-03-13T01:00:45;19.95;;;4.47;;
39524;SDS011;25203;50.754;6.978;2023-03-13T01:02:45;16.02;;;4.00;;
39524;SDS011;25203;50.754;6.978;2023-03-13T01:04:46;17.40;;;4.53;;
39524;SDS011;25203;50.754;6.978;2023-03-13T01:06:46;25.15;;;4.28;;
39524;SDS011;25203;50.754;6.978;2023-03-13T01:08:47;20.45;;;4.15;;
39524;SDS011;25203;50.754;6.978;2023-03-13T01:10:48;18.85;;;4.38;;
39524;SDS011;25203;50.754;6.978;2023-03-13T01:12:49;15.38;;;3.53;;
39524;SDS011;25203;50.754;6.978;2023-03-13T01:14:50;17.75;;;3.97;;
39524;SDS011;25203;50.754;6.978;2023-03-13T01:16:50;19.00;;;4.43;;
39524;SDS011;25203;50.754;6.978;2023-03-13T01:18:52;18.75;;;4.35;;
39524;SDS011;25203;50.754;6.978;2023-03-13T01:20:54;18.60;;;4.38;;
39524;SDS011;25203;50.754;6.978;2023-03-13T01:22:54;23.13;;;3.53;;
39524;SDS011;25203;50.754;6.978;2023-03-13T01:24:55;13.25;;;3.58;;
39524;SDS011;25203;50.754;6.978;2023-03-13T01:26:56;19.60;;;4.35;;
39524;SDS011;25203;50.754;6.978;2023-03-13T01:28:57;16.67;;;3.20;;
39524;SDS011;25203;50.754;6.978;2023-03-13T01:30:58;12.50;;;3.72;;
39524;SDS011;25203;50.754;6.978;2023-03-13T01:32:59;15.68;;;3.38;;
39524;SDS011;25203;50.754;6.978;2023-03-13T01:35:01;13.25;;;3.33;;
39524;SDS011;25203;50.754;6.978;2023-03-13T01:37:01;12.13;;;3.20;;
39524;SDS011;25203;50.754;6.978;2023-03-13T01:39:02;15.23;;;3.55;;
39524;SDS011;25203;50.754;6.978;2023-03-13T01:41:04;16.48;;;3.53;;
39524;SDS011;25203;50.754;6.978;2023-03-13T01:43:15;17.00;;;3.97;;
39524;SDS011;25203;50.754;6.978;2023-03-13T01:47:49;17.05;;;3.63;;
39524;SDS011;25203;50.754;6.978;2023-03-13T01:49:50;12.27;;;3.53;;
39524;SDS011;25203;50.754;6.978;2023-03-13T01:52:05;17.65;;;3.53;;
39524;SDS011;25203;50.754;6.978;2023-03-13T01:56:33;12.35;;;3.88;;
39524;SDS011;25203;50.754;6.978;2023-03-13T01:58:39;12.40;;;2.60;;
39524;SDS011;25203;50.754;6.978;2023-03-13T02:00:39;13.25;;;3.17;;
39524;SDS011;25203;50.754;6.978;2023-03-13T02:02:43;8.70;;;2.70;;
39524;SDS011;25203;50.754;6.978;2023-03-13T02:04:48;14.27;;;3.20;;
39524;SDS011;25203;50.754;6.978;2023-03-13T02:06:54;15.13;;;3.08;;
39524;SDS011;25203;50.754;6.978;2023-03-13T02:09:02;11.45;;;3.03;;
39524;SDS011;25203;50.754;6.978;2023-03-13T02:11:22;13.07;;;2.78;;
39524;SDS011;25203;50.754;6.978;2023-03-13T02:13:37;10.20;;;2.92;;
39524;SDS011;25203;50.754;6.978;2023-03-13T02:15:37;9.85;;;2.20;;
39524;SDS011;25203;50.754;6.978;2023-03-13T02:17:40;13.82;;;2.85;;
39524;SDS011;25203;50.754;6.978;2023-03-13T02:21:59;9.80;;;2.17;;
39524;SDS011;25203;50.754;6.978;2023-03-13T02:26:28;6.32;;;2.03;;
39524;SDS011;25203;50.754;6.978;2023-03-13T02:28:30;6.80;;;1.88;;
39524;SDS011;25203;50.754;6.978;2023-03-13T02:30:33;9.35;;;2.53;;
39524;SDS011;25203;50.754;6.978;2023-03-13T02:32:34;6.57;;;1.70;;
39524;SDS011;25203;50.754;6.978;2023-03-13T02:34:37;7.40;;;1.80;;
39524;SDS011;25203;50.754;6.978;2023-03-13T02:36:40;8.48;;;1.70;;
39524;SDS011;25203;50.754;6.978;2023-03-13T02:38:47;6.85;;;1.90;;
39524;SDS011;25203;50.754;6.978;2023-03-13T02:40:58;7.72;;;1.77;;
39524;SDS011;25203;50.754;6.978;2023-03-13T02:43:06;4.85;;;1.60;;
39524;SDS011;25203;50.754;6.978;2023-03-13T02:45:14;7.80;;;1.55;;
39524;SDS011;25203;50.754;6.978;2023-03-13T02:47:20;5.95;;;1.77;;
39524;SDS011;25203;50.754;6.978;2023-03-13T02:49:25;5.75;;;1.50;;
39524;SDS011;25203;50.754;6.978;2023-03-13T02:53:38;4.13;;;1.25;;
39524;SDS011;25203;50.754;6.978;2023-03-13T02:55:40;4.50;;;1.50;;
39524;SDS011;25203;50.754;6.978;2023-03-13T02:57:41;5.82;;;1.58;;
39524;SDS011;25203;50.754;6.978;2023-03-13T02:59:42;4.75;;;1.25;;
39524;SDS011;25203;50.754;6.978;2023-03-13T03:01:43;5.28;;;2.03;;
39524;SDS011;25203;50.754;6.978;2023-03-13T03:03:43;4.97;;;1.80;;
39524;SDS011;25203;50.754;6.978;2023-03-13T03:05:44;5.05;;;1.33;;
39524;SDS011;25203;50.754;6.978;2023-03-13T03:07:45;4.60;;;1.30;;
39524;SDS011;25203;50.754;6.978;2023-03-13T03:09:45;3.22;;;1.38;;
39524;SDS011;25203;50.754;6.978;2023-03-13T03:11:46;4.95;;;1.15;;
39524;SDS011;25203;50.754;6.978;2023-03-13T03:13:47;2.90;;;1.17;;
39524;SDS011;25203;50.754;6.978;2023-03-13T03:15:47;2.65;;;1.00;;
39524;SDS011;25203;50.754;6.978;2023-03-13T03:17:48;2.40;;;1.00;;
39524;SDS011;25203;50.754;6.978;2023-03-13T03:19:48;3.47;;;1.00;;
39524;SDS011;25203;50.754;6.978;2023-03-13T03:21:49;2.85;;;0.95;;
39524;SDS011;25203;50.754;6.978;2023-03-13T03:23:50;2.83;;;0.90;;
39524;SDS011;25203;50.754;6.978;2023-03-13T03:25:50;0.93;;;0.77;;
39524;SDS011;25203;50.754;6.978;2023-03-13T03:27:51;2.80;;;0.80;;
39524;SDS011;25203;50.754;6.978;2023-03-13T03:29:51;1.05;;;0.60;;
39524;SDS011;25203;50.754;6.978;2023-03-13T03:31:52;2.90;;;0.70;;
39524;SDS011;25203;50.754;6.978;2023-03-13T03:33:53;3.15;;;1.00;;
39524;SDS011;25203;50.754;6.978;2023-03-13T03:35:57;1.80;;;0.73;;
39524;SDS011;25203;50.754;6.978;2023-03-13T03:38:03;4.30;;;1.35;;
39524;SDS011;25203;50.754;6.978;2023-03-13T03:40:04;4.03;;;0.60;;
39524;SDS011;25203;50.754;6.978;2023-03-13T03:42:05;1.17;;;0.65;;
39524;SDS011;25203;50.754;6.978;2023-03-13T03:44:06;1.02;;;0.60;;
39524;SDS011;25203;50.754;6.978;2023-03-13T03:46:07;1.33;;;0.63;;
39524;SDS011;25203;50.754;6.978;2023-03-13T03:48:07;1.40;;;0.73;;
39524;SDS011;25203;50.754;6.978;2023-03-13T03:50:08;1.25;;;0.40;;
39524;SDS011;25203;50.754;6.978;2023-03-13T03:52:10;1.02;;;0.50;;
39524;SDS011;25203;50.754;6.978;2023-03-13T03:54:10;1.23;;;0.60;;
39524;SDS011;25203;50.754;6.978;2023-03-13T03:56:11;0.40;;;0.40;;
39524;SDS011;25203;50.754;6.978;2023-03-13T03:58:11;1.17;;;0.50;;
39524;SDS011;25203;50.754;6.978;2023-03-13T04:00:12;2.05;;;0.52;;
39524;SDS011;25203;50.754;6.978;2023-03-13T04:02:14;1.75;;;0.40;;
39524;SDS011;25203;50.754;6.978;2023-03-13T04:04:16;1.23;;;0.43;;
39524;SDS011;25203;50.754;6.978;2023-03-13T04:06:16;0.98;;;0.60;;
39524;SDS011;25203;50.754;6.978;2023-03-13T04:08:17;3.25;;;0.52;;
39524;SDS011;25203;50.754;6.978;2023-03-13T04:10:18;0.43;;;0.43;;
39524;SDS011;25203;50.754;6.978;2023-03-13T04:12:19;0.65;;;0.50;;
39524;SDS011;25203;50.754;6.978;2023-03-13T04:14:19;0.80;;;0.30;;
39524;SDS011;25203;50.754;6.978;2023-03-13T04:16:20;0.85;;;0.45;;
39524;SDS011;25203;50.754;6.978;2023-03-13T04:18:20;0.43;;;0.43;;
39524;SDS011;25203;50.754;6.978;2023-03-13T04:20:21;0.70;;;0.45;;
39524;SDS011;25203;50.754;6.978;2023-03-13T04:22:22;0.38;;;0.30;;
39524;SDS011;25203;50.754;6.978;2023-03-13T04:24:22;0.63;;;0.35;;
39524;SDS011;25203;50.754;6.978;2023-03-13T04:26:23;0.82;;;0.40;;
39524;SDS011;25203;50.754;6.978;2023-03-13T04:28:23;1.38;;;0.40;;
39524;SDS011;25203;50.754;6.978;2023-03-13T04:30:24;0.77;;;0.50;;
39524;SDS011;25203;50.754;6.978;2023-03-13T04:32:25;0.32;;;0.30;;
39524;SDS011;25203;50.754;6.978;2023-03-13T04:34:26;0.40;;;0.40;;
39524;SDS011;25203;50.754;6.978;2023-03-13T04:36:26;0.25;;;0.25;;
39524;SDS011;25203;50.754;6.978;2023-03-13T04:38:27;0.45;;;0.35;;
39524;SDS011;25203;50.754;6.978;2023-03-13T04:40:28;0.30;;;0.30;;
39524;SDS011;25203;50.754;6.978;2023-03-13T04:42:28;0.30;;;0.30;;
39524;SDS011;25203;50.754;6.978;2023-03-13T04:44:29;0.45;;;0.40;;
39524;SDS011;25203;50.754;6.978;2023-03-13T04:46:30;0.30;;;0.30;;
39524;SDS011;25203;50.754;6.978;2023-03-13T04:48:30;0.93;;;0.35;;
39524;SDS011;25203;50.754;6.978;2023-03-13T04:50:31;1.58;;;0.40;;
39524;SDS011;25203;50.754;6.978;2023-03-13T04:52:31;0.30;;;0.30;;
39524;SDS011;25203;50.754;6.978;2023-03-13T04:54:32;0.40;;;0.40;;
39524;SDS011;25203;50.754;6.978;2023-03-13T04:56:33;0.40;;;0.30;;
39524;SDS011;25203;50.754;6.978;2023-03-13T04:58:33;0.30;;;0.30;;
39524;SDS011;25203;50.754;6.978;2023-03-13T05:00:34;2.42;;;0.30;;
39524;SDS011;25203;50.754;6.978;2023-03-13T05:02:34;0.30;;;0.30;;
39524;SDS011;25203;50.754;6.978;2023-03-13T05:04:35;0.40;;;0.40;;
39524;SDS011;25203;50.754;6.978;2023-03-13T05:06:36;1.50;;;0.50;;
39524;SDS011;25203;50.754;6.978;2023-03-13T05:08:37;0.28;;;0.28;;
39524;SDS011;25203;50.754;6.978;2023-03-13T05:10:37;0.30;;;0.30;;
39524;SDS011;25203;50.754;6.978;2023-03-13T05:12:38;0.45;;;0.45;;
39524;SDS011;25203;50.754;6.978;2023-03-13T05:14:38;0.40;;;0.40;;
39524;SDS011;25203;50.754;6.978;2023-03-13T05:16:39;0.93;;;0.57;;
39524;SDS011;25203;50.754;6.978;2023-03-13T05:18:40;0.82;;;0.50;;
39524;SDS011;25203;50.754;6.978;2023-03-13T05:20:40;0.47;;;0.47;;
39524;SDS011;25203;50.754;6.978;2023-03-13T05:22:41;1.00;;;0.55;;
39524;SDS011;25203;50.754;6.978;2023-03-13T05:24:41;0.50;;;0.50;;
39524;SDS011;25203;50.754;6.978;2023-03-13T05:26:42;0.35;;;0.35;;
39524;SDS011;25203;50.754;6.978;2023-03-13T05:28:43;0.30;;;0.30;;
39524;SDS011;25203;50.754;6.978;2023-03-13T05:30:43;0.60;;;0.50;;
39524;SDS011;25203;50.754;6.978;2023-03-13T05:32:44;0.47;;;0.47;;
39524;SDS011;25203;50.754;6.978;2023-03-13T05:34:44;1.77;;;0.50;;
39524;SDS011;25203;50.754;6.978;2023-03-13T05:36:46;0.55;;;0.45;;
39524;SDS011;25203;50.754;6.978;2023-03-13T05:38:49;0.40;;;0.40;;
39524;SDS011;25203;50.754;6.978;2023-03-13T05:40:50;0.40;;;0.32;;
39524;SDS011;25203;50.754;6.978;2023-03-13T05:42:50;1.05;;;0.40;;
39524;SDS011;25203;50.754;6.978;2023-03-13T05:44:51;0.40;;;0.40;;
39524;SDS011;25203;50.754;6.978;2023-03-13T05:46:51;0.77;;;0.63;;
39524;SDS011;25203;50.754;6.978;2023-03-13T05:48:52;0.30;;;0.30;;
39524;SDS011;25203;50.754;6.978;2023-03-13T05:50:53;0.47;;;0.47;;
39524;SDS011;25203;50.754;6.978;2023-03-13T05:52:53;0.40;;;0.40;;
39524;SDS011;25203;50.754;6.978;2023-03-13T05:54:54;0.50;;;0.50;;
39524;SDS011;25203;50.754;6.978;2023-03-13T05:56:54;0.90;;;0.47;;
39524;SDS011;25203;50.754;6.978;2023-03-13T05:58:55;0.40;;;0.40;;
39524;SDS011;25203;50.754;6.978;2023-03-13T06:00:55;0.68;;;0.47;;
39524;SDS011;25203;50.754;6.978;2023-03-13T06:02:56;0.40;;;0.40;;
39524;SDS011;25203;50.754;6.978;2023-03-13T06:04:57;0.30;;;0.30;;
39524;SDS011;25203;50.754;6.978;2023-03-13T06:06:57;0.40;;;0.40;;
39524;SDS011;25203;50.754;6.978;2023-03-13T06:08:58;0.60;;;0.50;;
39524;SDS011;25203;50.754;6.978;2023-03-13T06:10:59;0.50;;;0.50;;
39524;SDS011;25203;50.754;6.978;2023-03-13T06:13:00;0.68;;;0.50;;
39524;SDS011;25203;50.754;6.978;2023-03-13T06:15:00;0.40;;;0.40;;
39524;SDS011;25203;50.754;6.978;2023-03-13T06:17:01;1.80;;;0.60;;
39524;SDS011;25203;50.754;6.978;2023-03-13T06:19:02;0.50;;;0.50;;
39524;SDS011;25203;50.754;6.978;2023-03-13T06:21:03;1.98;;;0.80;;
39524;SDS011;25203;50.754;6.978;2023-03-13T06:23:04;1.30;;;0.60;;
39524;SDS011;25203;50.754;6.978;2023-03-13T06:25:04;0.50;;;0.50;;
39524;SDS011;25203;50.754;6.978;2023-03-13T06:27:06;2.33;;;0.60;;
39524;SDS011;25203;50.754;6.978;2023-03-13T06:29:06;0.82;;;0.75;;
39524;SDS011;25203;50.754;6.978;2023-03-13T06:31:09;1.75;;;0.80;;
39524;SDS011;25203;50.754;6.978;2023-03-13T06:33:09;4.60;;;1.35;;
39524;SDS011;25203;50.754;6.978;2023-03-13T06:35:10;3.15;;;0.88;;
39524;SDS011;25203;50.754;6.978;2023-03-13T06:37:11;2.30;;;1.27;;
39524;SDS011;25203;50.754;6.978;2023-03-13T06:39:11;1.15;;;0.98;;
39524;SDS011;25203;50.754;6.978;2023-03-13T06:41:12;2.45;;;1.10;;
39524;SDS011;25203;50.754;6.978;2023-03-13T06:43:13;1.15;;;0.80;;
39524;SDS011;25203;50.754;6.978;2023-03-13T06:45:14;2.30;;;1.00;;
39524;SDS011;25203;50.754;6.978;2023-03-13T06:47:14;1.52;;;1.00;;
39524;SDS011;25203;50.754;6.978;2023-03-13T06:49:15;2.30;;;1.27;;
39524;SDS011;25203;50.754;6.978;2023-03-13T06:51:16;1.30;;;1.00;;
39524;SDS011;25203;50.754;6.978;2023-03-13T06:53:19;3.55;;;1.20;;
39524;SDS011;25203;50.754;6.978;2023-03-13T06:55:20;1.38;;;1.10;;
39524;SDS011;25203;50.754;6.978;2023-03-13T06:57:20;1.27;;;1.02;;
39524;SDS011;25203;50.754;6.978;2023-03-13T06:59:21;3.15;;;1.30;;
39524;SDS011;25203;50.754;6.978;2023-03-13T07:01:22;5.57;;;1.80;;
39524;SDS011;25203;50.754;6.978;2023-03-13T07:03:22;2.75;;;1.58;;
39524;SDS011;25203;50.754;6.978;2023-03-13T07:05:23;3.13;;;1.60;;
39524;SDS011;25203;50.754;6.978;2023-03-13T07:07:24;1.45;;;1.23;;
39524;SDS011;25203;50.754;6.978;2023-03-13T07:09:24;3.47;;;1.60;;
39524;SDS011;25203;50.754;6.978;2023-03-13T07:11:25;2.50;;;1.70;;
39524;SDS011;25203;50.754;6.978;2023-03-13T07:13:25;3.10;;;1.60;;
39524;SDS011;25203;50.754;6.978;2023-03-13T07:15:26;2.92;;;1.83;;
39524;SDS011;25203;50.754;6.978;2023-03-13T07:17:27;5.47;;;1.70;;
39524;SDS011;25203;50.754;6.978;2023-03-13T07:19:27;3.50;;;1.95;;
39524;SDS011;25203;50.754;6.978;2023-03-13T07:21:28;7.03;;;2.08;;
39524;SDS011;25203;50.754;6.978;2023-03-13T07:23:28;4.57;;;1.85;;
39524;SDS011;25203;50.754;6.978;2023-03-13T07:25:29;6.05;;;1.75;;
39524;SDS011;25203;50.754;6.978;2023-03-13T07:27:30;2.83;;;1.83;;
39524;SDS011;25203;50.754;6.978;2023-03-13T07:29:31;4.05;;;1.75;;
39524;SDS011;25203;50.754;6.978;2023-03-13T07:31:32;2.65;;;1.55;;
39524;SDS011;25203;50.754;6.978;2023-03-13T07:33:34;3.70;;;1.77;;
39524;SDS011;25203;50.754;6.978;2023-03-13T07:35:34;4.28;;;1.80;;
39524;SDS011;25203;50.754;6.978;2023-03-13T07:37:35;5.97;;;1.52;;
39524;SDS011;25203;50.754;6.978;2023-03-13T07:39:36;3.25;;;2.00;;
39524;SDS011;25203;50.754;6.978;2023-03-13T07:41:37;4.43;;;2.00;;
39524;SDS011;25203;50.754;6.978;2023-03-13T07:43:38;3.92;;;1.60;;
39524;SDS011;25203;50.754;6.978;2023-03-13T07:45:48;3.65;;;2.00;;
39524;SDS011;25203;50.754;6.978;2023-03-13T07:47:55;4.72;;;2.00;;
39524;SDS011;25203;50.754;6.978;2023-03-13T07:49:55;4.50;;;2.10;;
39524;SDS011;25203;50.754;6.978;2023-03-13T07:51:56;3.90;;;1.85;;
39524;SDS011;25203;50.754;6.978;2023-03-13T07:53:57;4.20;;;2.00;;
39524;SDS011;25203;50.754;6.978;2023-03-13T07:56:01;5.88;;;2.20;;
39524;SDS011;25203;50.754;6.978;2023-03-13T07:58:03;6.28;;;2.33;;
39524;SDS011;25203;50.754;6.978;2023-03-13T08:00:04;5.85;;;2.08;;
39524;SDS011;25203;50.754;6.978;2023-03-13T08:02:10;9.55;;;2.30;;
39524;SDS011;25203;50.754;6.978;2023-03-13T08:04:12;7.80;;;1.75;;
39524;SDS011;25203;50.754;6.978;2023-03-13T08:06:14;3.63;;;1.70;;
39524;SDS011;25203;50.754;6.978;2023-03-13T08:08:19;6.97;;;2.17;;
39524;SDS011;25203;50.754;6.978;2023-03-13T08:10:20;4.90;;;1.60;;
39524;SDS011;25203;50.754;6.978;2023-03-13T08:12:20;4.28;;;2.33;;
39524;SDS011;25203;50.754;6.978;2023-03-13T08:14:21;6.88;;;1.92;;
39524;SDS011;25203;50.754;6.978;2023-03-13T08:16:22;7.35;;;2.25;;
39524;SDS011;25203;50.754;6.978;2023-03-13T08:18:24;4.32;;;2.10;;
39524;SDS011;25203;50.754;6.978;2023-03-13T08:20:25;6.93;;;1.98;;
39524;SDS011;25203;50.754;6.978;2023-03-13T08:22:26;4.65;;;1.95;;
39524;SDS011;25203;50.754;6.978;2023-03-13T08:24:27;7.20;;;2.72;;
39524;SDS011;25203;50.754;6.978;2023-03-13T08:26:28;8.80;;;2.15;;
39524;SDS011;25203;50.754;6.978;2023-03-13T08:28:30;9.43;;;2.25;;
39524;SDS011;25203;50.754;6.978;2023-03-13T08:30:31;4.95;;;2.10;;
39524;SDS011;25203;50.754;6.978;2023-03-13T08:32:32;7.43;;;2.35;;
39524;SDS011;25203;50.754;6.978;2023-03-13T08:34:33;5.35;;;2.10;;
39524;SDS011;25203;50.754;6.978;2023-03-13T08:36:36;8.40;;;2.15;;
39524;SDS011;25203;50.754;6.978;2023-03-13T08:38:37;7.75;;;2.60;;
39524;SDS011;25203;50.754;6.978;2023-03-13T08:40:38;5.72;;;2.40;;
39524;SDS011;25203;50.754;6.978;2023-03-13T08:42:39;9.95;;;2.65;;
39524;SDS011;25203;50.754;6.978;2023-03-13T08:44:40;4.32;;;2.13;;
39524;SDS011;25203;50.754;6.978;2023-03-13T08:46:40;5.30;;;2.20;;
39524;SDS011;25203;50.754;6.978;2023-03-13T08:48:42;10.23;;;2.58;;
39524;SDS011;25203;50.754;6.978;2023-03-13T08:50:43;5.45;;;2.42;;
39524;SDS011;25203;50.754;6.978;2023-03-13T08:52:44;6.32;;;2.40;;
39524;SDS011;25203;50.754;6.978;2023-03-13T08:54:46;4.68;;;2.17;;
39524;SDS011;25203;50.754;6.978;2023-03-13T08:56:47;7.13;;;2.83;;
39524;SDS011;25203;50.754;6.978;2023-03-13T08:58:52;4.50;;;1.98;;
39524;SDS011;25203;50.754;6.978;2023-03-13T09:00:59;7.57;;;2.58;;
39524;SDS011;25203;50.754;6.978;2023-03-13T09:03:04;5.22;;;2.33;;
39524;SDS011;25203;50.754;6.978;2023-03-13T09:05:05;6.97;;;1.90;;
39524;SDS011;25203;50.754;6.978;2023-03-13T09:07:06;6.78;;;2.08;;
39524;SDS011;25203;50.754;6.978;2023-03-13T09:09:07;3.58;;;2.05;;
39524;SDS011;25203;50.754;6.978;2023-03-13T09:11:09;5.53;;;2.05;;
39524;SDS011;25203;50.754;6.978;2023-03-13T09:13:12;3.55;;;1.77;;
39524;SDS011;25203;50.754;6.978;2023-03-13T09:15:12;4.65;;;2.17;;
39524;SDS011;25203;50.754;6.978;2023-03-13T09:17:13;3.90;;;1.77;;
39524;SDS011;25203;50.754;6.978;2023-03-13T09:19:14;3.47;;;1.63;;
39524;SDS011;25203;50.754;6.978;2023-03-13T09:21:16;3.03;;;1.48;;
39524;SDS011;25203;50.754;6.978;2023-03-13T09:23:19;3.08;;;1.40;;
39524;SDS011;25203;50.754;6.978;2023-03-13T09:25:20;4.32;;;1.98;;
39524;SDS011;25203;50.754;6.978;2023-03-13T09:27:21;4.18;;;1.48;;
39524;SDS011;25203;50.754;6.978;2023-03-13T09:29:21;3.22;;;1.67;;
39524;SDS011;25203;50.754;6.978;2023-03-13T09:31:24;3.08;;;1.40;;
39524;SDS011;25203;50.754;6.978;2023-03-13T09:33:26;2.38;;;1.40;;
39524;SDS011;25203;50.754;6.978;2023-03-13T09:35:27;3.30;;;1.33;;
39524;SDS011;25203;50.754;6.978;2023-03-13T09:37:27;3.97;;;1.58;;
39524;SDS011;25203;50.754;6.978;2023-03-13T09:39:28;3.28;;;1.40;;
39524;SDS011;25203;50.754;6.978;2023-03-13T09:41:39;1.48;;;1.13;;
39524;SDS011;25203;50.754;6.978;2023-03-13T09:46:04;2.88;;;1.45;;
39524;SDS011;25203;50.754;6.978;2023-03-13T09:48:23;4.60;;;1.50;;
39524;SDS011;25203;50.754;6.978;2023-03-13T09:50:34;3.72;;;1.80;;
39524;SDS011;25203;50.754;6.978;2023-03-13T09:52:39;2.67;;;1.50;;
39524;SDS011;25203;50.754;6.978;2023-03-13T09:54:48;3.00;;;1.25;;
39524;SDS011;25203;50.754;6.978;2023-03-13T09:56:59;3.00;;;1.60;;
39524;SDS011;25203;50.754;6.978;2023-03-13T09:59:19;2.63;;;1.40;;
39524;SDS011;25203;50.754;6.978;2023-03-13T10:01:23;3.95;;;1.40;;
39524;SDS011;25203;50.754;6.978;2023-03-13T10:03:29;2.35;;;1.58;;
39524;SDS011;25203;50.754;6.978;2023-03-13T10:05:54;4.10;;;1.40;;
39524;SDS011;25203;50.754;6.978;2023-03-13T10:08:43;4.15;;;1.70;;
39524;SDS011;25203;50.754;6.978;2023-03-13T10:13:06;2.28;;;1.65;;
39524;SDS011;25203;50.754;6.978;2023-03-13T10:17:34;3.85;;;1.75;;
39524;SDS011;25203;50.754;6.978;2023-03-13T10:19:38;3.50;;;1.63;;
39524;SDS011;25203;50.754;6.978;2023-03-13T10:21:46;3.47;;;1.55;;
39524;SDS011;25203;50.754;6.978;2023-03-13T10:23:55;4.65;;;1.88;;
39524;SDS011;25203;50.754;6.978;2023-03-13T10:26:01;4.75;;;1.48;;
39524;SDS011;25203;50.754;6.978;2023-03-13T10:28:02;3.88;;;1.38;;
39524;SDS011;25203;50.754;6.978;2023-03-13T10:30:04;3.95;;;1.63;;
39524;SDS011;25203;50.754;6.978;2023-03-13T10:32:06;6.88;;;1.48;;
39524;SDS011;25203;50.754;6.978;2023-03-13T10:34:23;2.42;;;1.50;;
39524;SDS011;25203;50.754;6.978;2023-03-13T10:36:26;2.17;;;1.55;;
39524;SDS011;25203;50.754;6.978;2023-03-13T10:38:49;5.13;;;1.20;;
39524;SDS011;25203;50.754;6.978;2023-03-13T10:40:58;2.80;;;1.30;;
39524;SDS011;25203;50.754;6.978;2023-03-13T10:43:02;1.67;;;1.05;;
39524;SDS011;25203;50.754;6.978;2023-03-13T10:45:15;2.38;;;1.48;;
39524;SDS011;25203;50.754;6.978;2023-03-13T10:47:17;2.40;;;1.10;;
39524;SDS011;25203;50.754;6.978;2023-03-13T10:49:20;1.75;;;0.90;;
39524;SDS011;25203;50.754;6.978;2023-03-13T10:51:24;2.38;;;0.90;;
39524;SDS011;25203;50.754;6.978;2023-03-13T10:53:35;2.58;;;0.75;;
39524;SDS011;25203;50.754;6.978;2023-03-13T10:55:36;2.28;;;0.80;;
39524;SDS011;25203;50.754;6.978;2023-03-13T10:57:51;2.47;;;0.70;;
39524;SDS011;25203;50.754;6.978;2023-03-13T10:59:54;1.92;;;0.88;;
39524;SDS011;25203;50.754;6.978;2023-03-13T11:01:57;2.00;;;0.90;;
39524;SDS011;25203;50.754;6.978;2023-03-13T11:04:00;1.58;;;0.68;;
39524;SDS011;25203;50.754;6.978;2023-03-13T11:06:29;2.15;;;0.88;;
39524;SDS011;25203;50.754;6.978;2023-03-13T11:08:34;1.05;;;0.80;;
39524;SDS011;25203;50.754;6.978;2023-03-13T11:10:35;0.98;;;0.70;;
39524;SDS011;25203;50.754;6.978;2023-03-13T11:12:36;0.85;;;0.60;;
39524;SDS011;25203;50.754;6.978;2023-03-13T11:14:47;2.03;;;0.40;;
39524;SDS011;25203;50.754;6.978;2023-03-13T11:16:59;1.27;;;0.50;;
39524;SDS011;25203;50.754;6.978;2023-03-13T11:19:26;4.35;;;0.60;;
39524;SDS011;25203;50.754;6.978;2023-03-13T11:21:31;1.20;;;0.43;;
39524;SDS011;25203;50.754;6.978;2023-03-13T11:23:39;0.45;;;0.40;;
39524;SDS011;25203;50.754;6.978;2023-03-13T11:32:55;0.40;;;0.40;;
39524;SDS011;25203;50.754;6.978;2023-03-13T11:35:03;0.32;;;0.30;;
39524;SDS011;25203;50.754;6.978;2023-03-13T11:37:17;0.85;;;0.40;;
39524;SDS011;25203;50.754;6.978;2023-03-13T11:44:03;0.55;;;0.30;;
39524;SDS011;25203;50.754;6.978;2023-03-13T11:46:37;1.00;;;0.32;;
39524;SDS011;25203;50.754;6.978;2023-03-13T11:48:51;0.40;;;0.40;;
39524;SDS011;25203;50.754;6.978;2023-03-13T11:51:23;0.38;;;0.38;;
39524;SDS011;25203;50.754;6.978;2023-03-13T11:56:31;2.25;;;0.40;;
39524;SDS011;25203;50.754;6.978;2023-03-13T11:58:47;0.40;;;0.40;;
39524;SDS011;25203;50.754;6.978;2023-03-13T12:01:08;0.50;;;0.50;;
39524;SDS011;25203;50.754;6.978;2023-03-13T12:03:35;0.38;;;0.35;;
39524;SDS011;25203;50.754;6.978;2023-03-13T12:05:44;0.60;;;0.50;;
39524;SDS011;25203;50.754;6.978;2023-03-13T12:10:03;1.08;;;0.63;;
39524;SDS011;25203;50.754;6.978;2023-03-13T12:14:48;0.60;;;0.60;;
39524;SDS011;25203;50.754;6.978;2023-03-13T12:17:02;1.85;;;0.70;;
39524;SDS011;25203;50.754;6.978;2023-03-13T12:19:29;3.53;;;0.68;;
39524;SDS011;25203;50.754;6.978;2023-03-13T12:23:49;2.20;;;0.77;;
39524;SDS011;25203;50.754;6.978;2023-03-13T12:28:50;1.30;;;0.88;;
39524;SDS011;25203;50.754;6.978;2023-03-13T12:30:51;1.67;;;0.68;;
39524;SDS011;25203;50.754;6.978;2023-03-13T12:35:26;2.15;;;0.80;;
39524;SDS011;25203;50.754;6.978;2023-03-13T12:39:55;5.50;;;0.88;;
39524;SDS011;25203;50.754;6.978;2023-03-13T12:44:38;1.98;;;1.00;;
39524;SDS011;25203;50.754;6.978;2023-03-13T12:46:46;1.02;;;0.70;;
39524;SDS011;25203;50.754;6.978;2023-03-13T12:49:01;1.42;;;0.80;;
39524;SDS011;25203;50.754;6.978;2023-03-13T12:56:17;2.95;;;1.00;;
39524;SDS011;25203;50.754;6.978;2023-03-13T13:00:55;0.88;;;0.73;;
39524;SDS011;25203;50.754;6.978;2023-03-13T13:03:01;2.42;;;0.85;;
39524;SDS011;25203;50.754;6.978;2023-03-13T13:05:24;2.05;;;0.82;;
39524;SDS011;25203;50.754;6.978;2023-03-13T13:07:31;2.03;;;0.82;;
39524;SDS011;25203;50.754;6.978;2023-03-13T13:09:34;0.85;;;0.75;;
39524;SDS011;25203;50.754;6.978;2023-03-13T13:13:38;0.80;;;0.75;;
39524;SDS011;25203;50.754;6.978;2023-03-13T13:15:57;1.65;;;0.85;;
39524;SDS011;25203;50.754;6.978;2023-03-13T13:24:40;1.63;;;0.70;;
39524;SDS011;25203;50.754;6.978;2023-03-13T13:26:48;1.73;;;0.88;;
39524;SDS011;25203;50.754;6.978;2023-03-13T13:28:50;0.95;;;0.80;;